Time;durP1;ratioP1;P1;durP2;ratioP2;P2;SDS_P1;SDS_P2;PMS_P1;PMS_P2;Temp;Humidity;BMP_temperature;BMP_pressure;BME280_temperature;BME280_humidity;BME280_pressure;Samples;Min_cycle;Max_cycle;Signal;HPM_P1;HPM_P2
2022/06/11 03:02:03;;;;;;;3.10;0.80;;;13.20;99.90;;;;;;5508514;23;89294;-74
2022/06/11 03:04:31;;;;;;;2.65;1.00;;;13.10;99.90;;;;;;4901175;28;86907;-72
2022/06/11 03:06:57;;;;;;;3.67;1.00;;;13.10;99.90;;;;;;4901549;28;86938;-71
2022/06/11 03:09:26;;;;;;;4.05;0.95;;;13.10;99.90;;;;;;4900841;28;87047;-73
2022/06/11 03:11:52;;;;;;;3.80;0.93;;;13.10;99.90;;;;;;4900755;28;86969;-73
2022/06/11 03:14:17;;;;;;;2.78;0.73;;;13.00;99.90;;;;;;4902411;28;86320;-72
2022/06/11 03:16:44;;;;;;;3.67;1.10;;;13.00;99.90;;;;;;4901359;28;87263;-71
2022/06/11 03:19:11;;;;;;;2.58;1.00;;;13.10;99.90;;;;;;4901906;28;86549;-71
2022/06/11 03:21:38;;;;;;;4.40;1.00;;;13.00;99.90;;;;;;4899535;28;88131;-72
2022/06/11 03:24:04;;;;;;;4.32;1.20;;;13.00;99.90;;;;;;4895165;28;88255;-72
2022/06/11 03:26:30;;;;;;;7.65;1.20;;;13.00;99.90;;;;;;4899797;28;87433;-72
2022/06/11 03:28:55;;;;;;;4.05;1.55;;;13.00;99.90;;;;;;4901684;28;86548;-72
2022/06/11 03:31:21;;;;;;;3.78;1.13;;;12.90;99.90;;;;;;4901170;28;87246;-71
2022/06/11 03:33:47;;;;;;;6.95;1.25;;;12.80;99.90;;;;;;4901617;28;86852;-72
2022/06/11 03:36:15;;;;;;;3.70;0.90;;;12.80;99.90;;;;;;4900504;28;86944;-71
2022/06/11 03:38:43;;;;;;;2.83;0.95;;;12.80;99.90;;;;;;4901958;28;86229;-72
2022/06/11 03:41:10;;;;;;;2.25;0.68;;;12.80;99.90;;;;;;4900290;28;87164;-71
2022/06/11 03:43:36;;;;;;;4.10;0.85;;;13.00;99.90;;;;;;4900972;28;89667;-72
2022/06/11 03:46:04;;;;;;;2.75;1.00;;;13.10;99.90;;;;;;4900554;28;87598;-72
2022/06/11 03:48:30;;;;;;;4.45;1.13;;;13.10;99.90;;;;;;4899948;28;87069;-72
2022/06/11 03:50:57;;;;;;;6.07;1.17;;;13.20;99.90;;;;;;4900902;28;88142;-72
2022/06/11 03:53:24;;;;;;;2.53;0.93;;;13.30;99.90;;;;;;4900843;28;86961;-72
2022/06/11 03:55:50;;;;;;;3.63;0.68;;;13.60;99.90;;;;;;4900708;28;87027;-72
2022/06/11 03:58:18;;;;;;;4.68;0.98;;;14.10;99.90;;;;;;4901096;28;87078;-73
2022/06/11 04:03:30;;;;;;;2.25;0.75;;;14.70;99.90;;;;;;4893699;28;86747;-72
2022/06/11 04:05:56;;;;;;;3.63;1.15;;;15.00;99.90;;;;;;4895513;28;87144;-72
2022/06/11 04:08:24;;;;;;;2.75;0.93;;;14.90;98.90;;;;;;4899443;28;87058;-71
2022/06/11 04:10:52;;;;;;;4.25;0.90;;;15.40;98.10;;;;;;4898972;28;88012;-71
2022/06/11 04:13:20;;;;;;;3.33;0.90;;;15.40;97.50;;;;;;4898721;28;88393;-72
2022/06/11 04:15:48;;;;;;;2.78;1.05;;;15.80;95.50;;;;;;4897333;28;87144;-72
2022/06/11 04:18:24;;;;;;;5.47;1.00;;;16.20;93.20;;;;;;4898011;28;86985;-72
2022/06/11 04:20:50;;;;;;;2.00;0.82;;;16.10;93.30;;;;;;4887156;28;86732;-73
2022/06/11 04:23:16;;;;;;;3.72;0.82;;;16.00;94.00;;;;;;4900043;28;87046;-73
2022/06/11 04:25:42;;;;;;;6.85;1.10;;;16.30;92.60;;;;;;4898974;28;86850;-73
2022/06/11 04:28:08;;;;;;;3.65;0.88;;;16.60;90.70;;;;;;4898841;28;86206;-73
2022/06/11 04:30:33;;;;;;;3.75;0.95;;;16.40;91.20;;;;;;4900077;28;87231;-72
2022/06/11 04:32:59;;;;;;;2.50;0.73;;;16.40;91.20;;;;;;4899816;28;87866;-72
2022/06/11 04:35:25;;;;;;;3.33;0.82;;;16.60;90.90;;;;;;4894929;28;87885;-73
2022/06/11 04:37:50;;;;;;;2.75;0.82;;;17.10;89.80;;;;;;4898821;28;87381;-72
2022/06/11 04:40:18;;;;;;;2.78;0.70;;;17.70;85.50;;;;;;4894410;28;86647;-72
2022/06/11 04:42:44;;;;;;;2.15;0.70;;;17.40;85.70;;;;;;4896268;28;87746;-72
2022/06/11 04:45:12;;;;;;;1.77;0.60;;;18.00;85.00;;;;;;4896071;28;87090;-73
2022/06/11 04:47:39;;;;;;;3.85;0.63;;;18.50;80.40;;;;;;4896041;28;87840;-73
2022/06/11 04:50:07;;;;;;;3.17;0.70;;;18.80;80.30;;;;;;4895263;28;88068;-73
2022/06/11 04:52:33;;;;;;;2.30;0.65;;;19.70;75.40;;;;;;4896525;28;88353;-73
2022/06/11 04:54:59;;;;;;;2.15;0.85;;;20.60;71.70;;;;;;4898094;28;86823;-73
2022/06/11 04:57:24;;;;;;;1.38;0.60;;;20.80;73.30;;;;;;4895543;28;87164;-72
2022/06/11 04:59:51;;;;;;;4.78;0.40;;;21.40;68.70;;;;;;4896445;28;88143;-72
2022/06/11 05:02:17;;;;;;;5.47;0.60;;;22.10;65.80;;;;;;4882193;28;87895;-73
2022/06/11 05:04:43;;;;;;;2.63;0.68;;;22.40;63.90;;;;;;4877728;28;87139;-73
2022/06/11 05:07:08;;;;;;;4.68;1.10;;;22.90;62.40;;;;;;4872462;28;87134;-73
2022/06/11 05:09:34;;;;;;;4.22;0.60;;;23.10;60.10;;;;;;4871741;28;87064;-72
2022/06/11 05:12:01;;;;;;;1.73;0.63;;;23.10;60.30;;;;;;4876603;28;86897;-72
2022/06/11 05:14:28;;;;;;;3.47;0.82;;;23.40;58.90;;;;;;4875997;28;87060;-72
2022/06/11 05:16:56;;;;;;;3.33;1.02;;;23.50;57.90;;;;;;4878843;28;86744;-73
2022/06/11 05:19:22;;;;;;;4.18;0.75;;;23.40;59.00;;;;;;4879207;28;87551;-73
2022/06/11 05:21:49;;;;;;;2.20;0.60;;;22.90;60.40;;;;;;4879093;28;87360;-72
2022/06/11 05:24:19;;;;;;;3.67;1.13;;;23.40;58.80;;;;;;4874441;28;87982;-71
2022/06/11 05:26:55;;;;;;;4.70;0.70;;;23.20;59.10;;;;;;4875019;28;87190;-74
2022/06/11 05:29:29;;;;;;;4.13;0.93;;;23.20;59.60;;;;;;4872790;28;87752;-71
2022/06/11 05:31:55;;;;;;;3.15;0.80;;;23.60;58.30;;;;;;4872803;28;87322;-73
2022/06/11 05:34:21;;;;;;;3.53;0.80;;;24.30;57.00;;;;;;4875971;28;87198;-72
2022/06/11 05:36:47;;;;;;;2.08;1.08;;;24.60;56.50;;;;;;4881779;28;87539;-71
2022/06/11 05:39:13;;;;;;;3.70;0.88;;;24.60;55.50;;;;;;4876593;28;86987;-72
2022/06/11 05:41:39;;;;;;;2.05;0.55;;;24.30;56.70;;;;;;4874533;28;87166;-71
2022/06/11 05:44:05;;;;;;;4.53;0.93;;;25.10;54.60;;;;;;4874227;28;87479;-71
2022/06/11 05:46:32;;;;;;;4.28;0.82;;;24.90;56.10;;;;;;4876486;28;87173;-72
2022/06/11 05:49:01;;;;;;;2.90;1.05;;;26.60;53.60;;;;;;4869205;28;88192;-73
2022/06/11 05:51:39;;;;;;;4.28;1.17;;;28.30;51.30;;;;;;4874232;28;87948;-71
2022/06/11 05:54:13;;;;;;;2.05;1.13;;;28.80;48.50;;;;;;4871520;28;86781;-69
2022/06/11 05:56:39;;;;;;;1.85;0.80;;;29.30;48.60;;;;;;4872025;28;87205;-69
2022/06/11 05:59:15;;;;;;;2.17;0.63;;;29.00;47.80;;;;;;4873630;28;88619;-72
2022/06/11 06:01:42;;;;;;;2.92;1.10;;;30.10;47.80;;;;;;4869055;28;87895;-72
2022/06/11 06:04:08;;;;;;;2.70;1.65;;;31.80;45.50;;;;;;4873058;28;87401;-73
2022/06/11 06:06:35;;;;;;;2.88;1.02;;;32.40;41.80;;;;;;4871346;28;86251;-74
2022/06/11 06:09:00;;;;;;;2.88;0.90;;;32.60;42.10;;;;;;4877127;28;88270;-72
2022/06/11 06:11:27;;;;;;;2.08;0.95;;;32.30;41.20;;;;;;4875728;28;87011;-72
2022/06/11 06:13:55;;;;;;;2.08;0.95;;;32.30;41.60;;;;;;4873043;28;88038;-72
2022/06/11 06:16:24;;;;;;;1.75;0.60;;;32.90;40.70;;;;;;4878700;28;87185;-73
2022/06/11 06:18:52;;;;;;;3.40;1.27;;;33.30;40.50;;;;;;4880239;28;88109;-70
2022/06/11 06:21:21;;;;;;;2.33;1.08;;;34.40;39.40;;;;;;4881005;28;86897;-69
2022/06/11 06:23:47;;;;;;;1.98;0.90;;;35.10;38.00;;;;;;4883012;28;87544;-70
2022/06/11 06:26:13;;;;;;;1.80;0.82;;;34.40;39.20;;;;;;4871473;28;87000;-69
2022/06/11 06:28:39;;;;;;;1.98;1.42;;;35.10;38.40;;;;;;4877216;28;88471;-73
2022/06/11 06:31:06;;;;;;;2.75;0.77;;;35.20;37.20;;;;;;4879156;28;86664;-72
2022/06/11 06:33:32;;;;;;;2.05;1.38;;;35.30;37.70;;;;;;4879089;28;87497;-72
2022/06/11 06:35:59;;;;;;;1.67;1.42;;;35.90;36.00;;;;;;4882386;28;87085;-71
2022/06/11 06:38:25;;;;;;;3.58;1.38;;;35.90;35.70;;;;;;4875689;28;88039;-72
2022/06/11 06:40:51;;;;;;;3.90;1.05;;;36.00;37.10;;;;;;4876415;28;88021;-72
2022/06/11 06:43:17;;;;;;;3.47;1.00;;;36.80;36.70;;;;;;4875925;28;86939;-73
2022/06/11 06:45:43;;;;;;;2.65;1.00;;;37.30;35.90;;;;;;4876741;28;87229;-73
2022/06/11 06:48:09;;;;;;;3.47;1.17;;;37.90;35.30;;;;;;4873712;28;89520;-75
2022/06/11 06:50:35;;;;;;;2.75;1.70;;;38.00;35.40;;;;;;4875992;28;86956;-74
2022/06/11 06:53:00;;;;;;;2.53;1.30;;;37.70;35.20;;;;;;4879071;28;86963;-74
2022/06/11 06:55:26;;;;;;;2.97;1.50;;;38.20;33.50;;;;;;4879377;28;86348;-73
2022/06/11 06:57:52;;;;;;;3.85;1.40;;;38.60;34.20;;;;;;4876782;28;87691;-74
2022/06/11 07:00:19;;;;;;;1.85;1.30;;;39.10;33.80;;;;;;4876188;28;88014;-72
2022/06/11 07:02:46;;;;;;;3.00;1.48;;;39.20;34.90;;;;;;4879909;28;87850;-72
2022/06/11 07:05:12;;;;;;;2.88;1.70;;;39.00;34.70;;;;;;4881278;28;87177;-73
2022/06/11 07:07:39;;;;;;;4.00;1.58;;;39.70;33.50;;;;;;4881950;28;87684;-73
2022/06/11 07:10:06;;;;;;;3.42;1.48;;;39.90;33.10;;;;;;4877505;28;87477;-73
2022/06/11 07:12:32;;;;;;;2.03;1.23;;;40.40;32.20;;;;;;4880904;28;87110;-73
2022/06/11 07:14:58;;;;;;;4.18;2.53;;;40.60;32.80;;;;;;4884511;28;87022;-73
2022/06/11 07:17:25;;;;;;;4.00;2.20;;;41.00;33.00;;;;;;4880194;28;88127;-74
2022/06/11 07:20:04;;;;;;;3.35;1.88;;;41.50;32.50;;;;;;4881892;28;87284;-73
2022/06/11 07:22:57;;;;;;;2.50;2.22;;;42.20;31.90;;;;;;4881701;28;87106;-73
2022/06/11 07:25:24;;;;;;;2.97;1.60;;;41.90;29.60;;;;;;4878574;28;87264;-73
2022/06/11 07:27:55;;;;;;;3.85;1.73;;;40.90;31.10;;;;;;4879924;28;88342;-73
2022/06/11 07:30:24;;;;;;;2.20;0.98;;;40.20;31.40;;;;;;4875177;28;88824;-73
2022/06/11 07:32:54;;;;;;;1.63;1.48;;;38.20;32.70;;;;;;4878000;28;87378;-74
2022/06/11 07:35:21;;;;;;;2.83;1.20;;;35.70;35.50;;;;;;4878241;28;86920;-72
2022/06/11 07:37:48;;;;;;;2.92;0.77;;;33.80;37.20;;;;;;4878307;28;87231;-73
2022/06/11 07:40:15;;;;;;;2.08;1.08;;;32.60;38.70;;;;;;4880016;28;87014;-72
2022/06/11 07:42:41;;;;;;;2.40;1.02;;;32.90;38.90;;;;;;4878092;28;87486;-73
2022/06/11 07:45:07;;;;;;;1.83;1.20;;;33.60;38.10;;;;;;4876328;28;86824;-74
2022/06/11 07:50:17;;;;;;;1.80;1.42;;;35.60;36.50;;;;;;4878227;28;87038;-73
2022/06/11 07:52:43;;;;;;;2.40;1.17;;;38.10;35.80;;;;;;4880283;28;87946;-72
2022/06/11 07:55:11;;;;;;;2.55;1.75;;;39.60;35.00;;;;;;4881032;28;87571;-73
2022/06/11 07:57:38;;;;;;;3.65;1.80;;;40.80;33.70;;;;;;4880771;28;87142;-73
2022/06/11 08:00:06;;;;;;;2.88;1.88;;;41.90;32.80;;;;;;4880141;28;87011;-74
2022/06/11 08:02:32;;;;;;;3.50;2.72;;;42.60;32.40;;;;;;4880069;28;87185;-73
2022/06/11 08:04:57;;;;;;;2.72;2.30;;;42.90;31.60;;;;;;4880421;28;87177;-74
2022/06/11 08:07:25;;;;;;;2.78;2.15;;;43.00;30.80;;;;;;4877121;28;87471;-73
2022/06/11 08:09:51;;;;;;;2.90;1.75;;;43.00;31.90;;;;;;4878480;28;86416;-74
2022/06/11 08:12:16;;;;;;;3.38;2.30;;;42.50;32.50;;;;;;4880101;28;87466;-73
2022/06/11 08:14:43;;;;;;;6.57;2.33;;;43.40;31.20;;;;;;4880018;28;87088;-73
2022/06/11 08:17:08;;;;;;;5.43;3.35;;;43.30;31.70;;;;;;4879455;28;88199;-74
2022/06/11 08:19:34;;;;;;;3.03;2.33;;;44.00;30.40;;;;;;4881071;28;87874;-74
2022/06/11 08:22:00;;;;;;;8.15;3.42;;;43.50;30.90;;;;;;4880116;28;87230;-75
2022/06/11 08:24:25;;;;;;;3.33;2.85;;;44.30;31.30;;;;;;4879454;28;86999;-70
2022/06/11 08:26:51;;;;;;;4.55;2.65;;;44.90;30.70;;;;;;4879789;28;87289;-72
2022/06/11 08:29:17;;;;;;;5.03;2.95;;;46.20;29.70;;;;;;4874836;28;88772;-72
2022/06/11 08:31:42;;;;;;;7.32;3.35;;;46.90;29.60;;;;;;4879695;28;86652;-71
2022/06/11 08:34:08;;;;;;;6.38;3.88;;;46.70;29.80;;;;;;4880751;28;86747;-71
2022/06/11 08:36:34;;;;;;;3.17;2.72;;;46.40;29.50;;;;;;4880365;28;87815;-71
2022/06/11 08:38:59;;;;;;;6.72;3.33;;;45.40;30.80;;;;;;4875551;28;87031;-71
2022/06/11 08:41:32;;;;;;;6.22;3.92;;;45.10;31.30;;;;;;4879163;28;88386;-72
2022/06/11 08:44:12;;;;;;;4.43;3.50;;;45.70;30.80;;;;;;4877748;28;86945;-71
2022/06/11 08:46:40;;;;;;;6.95;3.70;;;44.30;32.50;;;;;;4876820;28;87636;-72
2022/06/11 08:49:24;;;;;;;5.07;3.33;;;44.10;32.00;;;;;;4879662;28;87391;-72
2022/06/11 08:52:00;;;;;;;6.70;3.22;;;45.70;30.40;;;;;;4880867;28;87132;-72
2022/06/11 08:54:36;;;;;;;10.57;4.07;;;46.90;30.10;;;;;;4880763;28;87032;-75
2022/06/11 08:57:32;;;;;;;5.30;4.32;;;47.60;29.20;;;;;;4880290;28;88969;-75
2022/06/11 09:00:10;;;;;;;4.63;3.25;;;46.50;30.00;;;;;;4880418;28;86395;-73
2022/06/11 09:03:03;;;;;;;4.85;4.28;;;45.40;30.70;;;;;;4879649;28;87037;-73
2022/06/11 09:05:38;;;;;;;;;;;45.50;29.90;;;;;;4880942;28;87167;-71
2022/06/11 09:08:22;;;;;;;5.07;4.57;;;45.20;29.90;;;;;;4880754;28;88204;-73
2022/06/11 09:11:12;;;;;;;4.43;3.97;;;45.80;29.50;;;;;;4877422;28;87748;-74
2022/06/11 09:13:43;;;;;;;4.03;3.10;;;46.20;29.30;;;;;;4877707;28;87233;-71
2022/06/11 09:16:41;;;;;;;3.58;3.03;;;46.20;29.30;;;;;;4878501;28;87096;-73
2022/06/11 09:19:25;;;;;;;5.30;3.28;;;46.20;29.20;;;;;;4841395;28;86995;-71
2022/06/11 09:22:02;;;;;;;4.65;3.08;;;47.00;28.10;;;;;;4879486;28;89486;-74
2022/06/11 09:25:06;;;;;;;5.38;3.15;;;47.20;27.80;;;;;;4880309;28;87045;-73
2022/06/11 09:27:45;;;;;;;5.10;4.65;;;45.90;29.40;;;;;;4880801;28;86650;-73
2022/06/11 09:30:25;;;;;;;4.20;3.38;;;46.30;29.20;;;;;;4874244;28;88565;-72
2022/06/11 09:33:19;;;;;;;4.75;3.25;;;46.20;28.00;;;;;;4872744;28;88419;-73
2022/06/11 09:35:50;;;;;;;3.33;2.75;;;45.30;28.60;;;;;;4873194;28;87972;-74
2022/06/11 09:38:16;;;;;;;4.05;3.55;;;44.70;29.00;;;;;;4879679;28;86725;-74
2022/06/11 09:40:44;;;;;;;4.00;3.55;;;45.00;29.00;;;;;;4879531;28;88175;-73
2022/06/11 09:43:31;;;;;;;3.88;3.33;;;45.10;28.90;;;;;;4878801;28;87495;-74
2022/06/11 09:46:11;;;;;;;6.15;3.33;;;43.90;29.10;;;;;;4875245;28;86857;-73
2022/06/11 09:48:58;;;;;;;6.43;3.20;;;43.70;30.30;;;;;;4878397;28;87641;-77
2022/06/11 09:51:42;;;;;;;3.33;2.95;;;44.70;29.20;;;;;;4882618;28;87665;-77
2022/06/11 09:54:30;;;;;;;5.65;2.38;;;43.20;30.30;;;;;;4882594;28;86343;-73
2022/06/11 09:57:50;;;;;;;4.70;2.55;;;43.70;29.70;;;;;;4873547;28;86950;-74
2022/06/11 10:00:44;;;;;;;3.53;2.50;;;44.30;30.00;;;;;;4877204;28;86990;-73
2022/06/11 10:03:31;;;;;;;4.30;2.38;;;43.80;30.00;;;;;;4840055;28;89037;-73
2022/06/11 10:06:38;;;;;;;4.47;2.85;;;43.20;29.10;;;;;;4880577;28;87881;-73
2022/06/11 10:09:15;;;;;;;3.67;3.08;;;41.60;30.50;;;;;;4882200;28;86957;-74
2022/06/11 10:12:18;;;;;;;4.35;2.08;;;40.00;32.60;;;;;;4882130;28;86573;-74
2022/06/11 10:15:05;;;;;;;6.55;2.83;;;36.30;36.40;;;;;;4844205;29;87369;-73
2022/06/11 10:17:52;;;;;;;3.85;2.53;;;33.80;39.10;;;;;;4880904;28;87027;-73
2022/06/11 10:20:47;;;;;;;3.53;1.45;;;31.70;41.20;;;;;;4876503;28;86649;-73
2022/06/11 10:23:31;;;;;;;2.78;1.58;;;30.60;45.30;;;;;;4869999;28;86560;-75
2022/06/11 10:26:34;;;;;;;2.28;1.42;;;30.20;44.50;;;;;;4881193;28;87302;-73
2022/06/11 10:29:02;;;;;;;2.95;1.75;;;29.40;46.40;;;;;;4880688;28;87357;-73
2022/06/11 10:31:35;;;;;;;6.40;1.60;;;28.20;49.60;;;;;;4880771;28;87954;-73
2022/06/11 10:34:16;;;;;;;2.92;1.17;;;28.00;50.20;;;;;;4881839;28;87388;-72
2022/06/11 10:36:52;;;;;;;3.20;1.52;;;28.10;51.90;;;;;;4877254;28;87942;-72
2022/06/11 10:39:28;;;;;;;3.20;1.27;;;27.80;49.80;;;;;;4880983;28;86785;-73
2022/06/11 10:42:04;;;;;;;2.42;0.93;;;27.80;47.70;;;;;;4880775;28;87424;-72
2022/06/11 10:44:38;;;;;;;3.47;1.38;;;27.60;51.80;;;;;;4875050;28;86894;-73
2022/06/11 10:47:15;;;;;;;5.35;1.27;;;27.30;49.10;;;;;;4879750;28;87309;-73
2022/06/11 10:49:41;;;;;;;2.42;0.93;;;27.50;49.50;;;;;;4881250;28;87384;-73
2022/06/11 10:52:18;;;;;;;2.28;0.98;;;27.50;50.10;;;;;;4881485;28;86952;-72
2022/06/11 10:54:43;;;;;;;3.22;1.27;;;27.00;51.50;;;;;;4881033;28;86975;-72
2022/06/11 10:57:29;;;;;;;7.68;0.95;;;27.10;51.30;;;;;;4880734;28;88078;-72
2022/06/11 11:00:30;;;;;;;2.60;0.90;;;26.80;51.80;;;;;;4880522;28;88398;-72
2022/06/11 11:03:01;;;;;;;2.45;0.70;;;27.00;50.50;;;;;;4879323;28;86999;-72
2022/06/11 11:05:49;;;;;;;1.80;0.63;;;26.90;49.30;;;;;;4873845;28;87304;-72
2022/06/11 11:08:16;;;;;;;2.63;0.50;;;26.80;48.50;;;;;;4880659;28;87557;-72
2022/06/11 11:10:46;;;;;;;3.22;1.00;;;26.80;50.80;;;;;;4880405;28;86942;-73
2022/06/11 11:13:44;;;;;;;2.60;0.93;;;27.00;49.70;;;;;;4880510;28;86956;-73
2022/06/11 11:16:13;;;;;;;2.15;0.85;;;27.00;49.50;;;;;;4880964;28;86375;-72
2022/06/11 11:18:45;;;;;;;2.72;0.63;;;27.00;52.80;;;;;;4875514;28;87203;-73
2022/06/11 11:21:27;;;;;;;2.30;0.52;;;26.80;48.40;;;;;;4880764;28;87299;-73
2022/06/11 11:23:56;;;;;;;1.70;0.63;;;26.90;49.10;;;;;;4879988;28;87911;-72
2022/06/11 11:26:36;;;;;;;4.45;0.65;;;26.90;52.00;;;;;;4880307;28;87020;-72
2022/06/11 11:29:27;;;;;;;3.28;0.80;;;26.90;50.30;;;;;;4879937;28;87582;-72
2022/06/11 11:32:04;;;;;;;4.05;0.82;;;26.60;47.50;;;;;;4880141;28;86933;-73
2022/06/11 11:34:32;;;;;;;2.25;0.73;;;26.60;48.10;;;;;;4878695;28;87580;-72
2022/06/11 11:37:25;;;;;;;3.60;0.70;;;26.30;49.10;;;;;;4879943;28;86928;-73
2022/06/11 11:39:56;;;;;;;3.05;0.65;;;26.10;52.00;;;;;;4865302;28;87819;-72
2022/06/11 11:42:23;;;;;;;2.88;0.60;;;26.20;48.50;;;;;;4880843;28;87368;-72
2022/06/11 11:44:51;;;;;;;1.83;0.38;;;26.20;49.40;;;;;;4880038;28;86970;-72
2022/06/11 11:47:34;;;;;;;2.33;0.43;;;26.10;48.40;;;;;;4879174;28;87087;-72
2022/06/11 11:50:11;;;;;;;1.77;0.60;;;25.90;51.40;;;;;;4878754;28;89288;-72
2022/06/11 11:52:52;;;;;;;2.38;0.45;;;25.80;51.40;;;;;;4873604;28;88448;-72
2022/06/11 11:55:25;;;;;;;1.20;0.52;;;25.90;49.60;;;;;;4880522;28;87127;-72
2022/06/11 11:58:15;;;;;;;2.20;0.30;;;26.10;49.50;;;;;;4880361;28;86823;-73
2022/06/11 12:00:55;;;;;;;1.30;0.30;;;25.90;50.50;;;;;;4855968;28;88130;-73
2022/06/11 12:03:27;;;;;;;1.70;0.38;;;25.70;51.70;;;;;;4897483;28;86993;-72
2022/06/11 12:05:56;;;;;;;1.55;0.60;;;25.90;50.90;;;;;;4899159;28;87155;-73
2022/06/11 12:08:27;;;;;;;3.33;0.47;;;26.10;49.20;;;;;;4899251;28;86298;-73
2022/06/11 12:10:57;;;;;;;1.63;0.47;;;26.30;50.20;;;;;;4898586;28;87158;-72
2022/06/11 12:13:31;;;;;;;1.58;0.70;;;26.40;49.10;;;;;;4897163;28;87460;-72
2022/06/11 12:16:00;;;;;;;1.70;0.20;;;26.10;49.10;;;;;;4895693;28;88087;-72
2022/06/11 12:18:48;;;;;;;1.60;0.40;;;25.80;49.10;;;;;;4894877;28;86974;-73
2022/06/11 12:21:22;;;;;;;1.60;0.47;;;25.60;49.80;;;;;;4899896;28;87539;-72
2022/06/11 12:24:24;;;;;;;1.42;0.38;;;25.90;48.30;;;;;;4895536;28;88635;-73
2022/06/11 12:26:56;;;;;;;2.72;0.50;;;25.90;48.20;;;;;;4895362;28;87133;-73
2022/06/11 12:29:40;;;;;;;2.55;0.50;;;25.90;48.40;;;;;;4894122;28;87063;-72
2022/06/11 12:32:14;;;;;;;1.30;0.50;;;25.90;50.60;;;;;;4896975;28;87489;-73
2022/06/11 12:34:40;;;;;;;1.80;0.57;;;25.90;50.20;;;;;;4897164;28;86441;-73
2022/06/11 12:37:29;;;;;;;3.00;0.50;;;26.30;46.40;;;;;;4898145;28;87452;-72
2022/06/11 12:40:33;;;;;;;1.27;0.30;;;26.20;47.50;;;;;;4895691;28;87079;-71
2022/06/11 12:43:04;;;;;;;2.25;0.65;;;26.10;49.40;;;;;;4893075;28;88016;-72
2022/06/11 12:46:00;;;;;;;1.77;0.65;;;26.10;48.30;;;;;;4897304;28;87144;-73
2022/06/11 12:48:29;;;;;;;1.13;0.50;;;25.80;47.40;;;;;;4898249;28;87026;-72
2022/06/11 12:51:06;;;;;;;1.15;0.63;;;25.70;46.60;;;;;;4896604;28;87139;-72
2022/06/11 12:54:11;;;;;;;1.42;0.50;;;25.90;47.60;;;;;;4897316;28;87097;-74
2022/06/11 12:56:58;;;;;;;1.52;0.20;;;25.80;47.10;;;;;;4894840;28;87368;-73
2022/06/11 12:59:49;;;;;;;1.55;0.55;;;25.70;45.30;;;;;;4894554;28;87093;-72
2022/06/11 13:02:24;;;;;;;1.00;0.32;;;25.80;48.50;;;;;;4881272;28;86701;-71
2022/06/11 13:05:12;;;;;;;0.70;0.32;;;26.00;46.50;;;;;;4871200;28;88182;-73
2022/06/11 13:08:08;;;;;;;1.92;0.20;;;26.10;44.60;;;;;;4872258;28;87176;-72
2022/06/11 13:10:49;;;;;;;6.53;0.22;;;26.30;46.80;;;;;;4877137;28;87999;-72
2022/06/11 13:13:49;;;;;;;1.00;0.30;;;26.60;45.70;;;;;;4876647;28;86951;-73
2022/06/11 13:16:35;;;;;;;3.22;0.20;;;26.80;43.30;;;;;;4876647;28;87244;-73
2022/06/11 13:19:16;;;;;;;1.08;0.32;;;26.60;46.40;;;;;;4873994;28;87299;-72
2022/06/11 13:22:08;;;;;;;1.38;0.43;;;26.70;45.80;;;;;;4873875;28;86953;-72
2022/06/11 13:24:57;;;;;;;1.70;0.50;;;26.40;45.50;;;;;;4871830;28;87039;-71
2022/06/11 13:27:35;;;;;;;1.52;0.35;;;26.10;47.10;;;;;;4877647;28;88802;-71
2022/06/11 13:30:11;;;;;;;1.73;0.25;;;26.20;46.70;;;;;;4872933;28;87085;-71
2022/06/11 13:32:52;;;;;;;3.22;0.40;;;26.10;48.30;;;;;;4875163;28;87025;-73
2022/06/11 13:35:48;;;;;;;1.55;0.40;;;25.90;45.80;;;;;;4877714;28;87319;-71
2022/06/11 13:38:38;;;;;;;2.10;0.32;;;25.90;47.20;;;;;;4872473;28;87950;-70
2022/06/11 13:41:28;;;;;;;1.73;0.40;;;25.90;47.40;;;;;;4875303;28;88772;-71
2022/06/11 13:44:21;;;;;;;1.27;0.40;;;25.90;47.00;;;;;;4871666;28;87100;-71
2022/06/11 13:46:47;;;;;;;1.13;0.52;;;25.70;48.60;;;;;;4871310;28;86964;-72
2022/06/11 13:49:28;;;;;;;1.58;0.45;;;25.70;47.80;;;;;;4877598;28;87416;-70
2022/06/11 13:52:14;;;;;;;2.17;0.40;;;25.90;46.80;;;;;;4872323;28;87003;-71
2022/06/11 13:57:46;;;;;;;1.25;0.38;;;26.10;47.60;;;;;;4874442;28;86396;-71
2022/06/11 14:00:38;;;;;;;1.85;0.50;;;26.30;47.90;;;;;;4875936;28;88190;-71
2022/06/11 14:03:25;;;;;;;1.70;0.38;;;26.30;45.50;;;;;;4875902;28;88125;-70
2022/06/11 14:05:53;;;;;;;1.52;0.43;;;26.10;46.60;;;;;;4872406;28;88464;-70
2022/06/11 14:08:21;;;;;;;1.10;0.30;;;26.10;47.70;;;;;;4875644;28;86890;-72
2022/06/11 14:10:50;;;;;;;3.28;0.65;;;26.20;46.50;;;;;;4876286;28;87662;-71
2022/06/11 14:13:22;;;;;;;2.35;0.32;;;26.20;46.40;;;;;;4876277;28;87019;-71
2022/06/11 14:15:51;;;;;;;1.85;0.52;;;26.00;47.90;;;;;;4875718;28;87124;-72
2022/06/11 14:18:20;;;;;;;2.13;0.25;;;25.90;45.10;;;;;;4876190;28;86963;-73
2022/06/11 14:20:49;;;;;;;1.42;0.30;;;25.70;47.50;;;;;;4875226;28;87586;-70
2022/06/11 14:23:15;;;;;;;2.55;0.40;;;25.80;45.90;;;;;;4871817;28;86757;-71
2022/06/11 14:25:54;;;;;;;1.25;0.20;;;25.80;44.70;;;;;;4876111;28;87036;-71
2022/06/11 14:28:21;;;;;;;1.80;0.28;;;25.90;44.40;;;;;;4875943;28;87499;-72
2022/06/11 14:30:53;;;;;;;4.55;0.60;;;26.00;43.20;;;;;;4873375;28;89678;-70
2022/06/11 14:33:23;;;;;;;1.85;0.50;;;25.90;43.70;;;;;;4871572;28;87407;-70
2022/06/11 14:35:49;;;;;;;1.13;0.30;;;26.00;42.90;;;;;;4874590;28;87847;-70
2022/06/11 14:38:48;;;;;;;1.50;0.20;;;26.10;41.70;;;;;;4879675;28;87010;-70
2022/06/11 14:41:15;;;;;;;1.10;0.30;;;26.10;43.50;;;;;;4876134;28;87573;-72
2022/06/11 14:43:53;;;;;;;2.10;0.30;;;26.20;43.60;;;;;;4872218;28;87599;-74
2022/06/11 14:49:11;;;;;;;1.42;0.30;;;26.10;40.40;;;;;;4875243;28;85902;-70
2022/06/11 14:51:44;;;;;;;2.20;0.35;;;26.00;40.20;;;;;;4866713;28;87686;-72
2022/06/11 14:54:33;;;;;;;1.00;0.22;;;26.10;42.80;;;;;;4876343;28;87160;-70
2022/06/11 14:57:13;;;;;;;2.60;0.20;;;26.20;40.30;;;;;;4875847;28;88463;-71
2022/06/11 15:00:00;;;;;;;0.95;0.20;;;26.00;41.60;;;;;;4879061;28;87308;-70
2022/06/11 15:02:44;;;;;;;0.88;0.13;;;26.00;40.90;;;;;;4873940;28;87158;-70
2022/06/11 15:05:44;;;;;;;1.15;0.45;;;25.90;39.20;;;;;;4878760;28;87181;-69
2022/06/11 15:08:31;;;;;;;1.02;0.17;;;25.80;40.40;;;;;;4876791;28;87382;-69
2022/06/11 15:11:22;;;;;;;0.82;0.20;;;25.90;40.80;;;;;;4870923;28;86926;-70
2022/06/11 15:14:22;;;;;;;1.05;0.65;;;25.90;41.40;;;;;;4872042;28;86776;-70
2022/06/11 15:16:50;;;;;;;0.80;0.30;;;25.90;41.70;;;;;;4877834;28;87905;-70
2022/06/11 15:19:15;;;;;;;1.17;0.40;;;25.80;40.70;;;;;;4875673;28;86918;-72
2022/06/11 15:21:49;;;;;;;0.85;0.35;;;25.90;41.60;;;;;;4880368;28;86887;-70
2022/06/11 15:24:38;;;;;;;4.03;0.45;;;25.90;39.80;;;;;;4873889;28;88154;-70
2022/06/11 15:27:04;;;;;;;;;;;25.90;40.60;;;;;;4867432;28;88340;-70
2022/06/11 15:29:32;;;;;;;1.52;0.20;;;25.80;42.00;;;;;;4882077;28;87435;-69
2022/06/11 15:32:16;;;;;;;2.10;0.20;;;25.70;40.20;;;;;;4879303;28;86999;-69
2022/06/11 15:34:50;;;;;;;0.63;0.28;;;25.70;39.50;;;;;;4879473;28;87438;-70
2022/06/11 15:37:16;;;;;;;1.77;0.10;;;25.80;40.80;;;;;;4879714;28;86996;-70
2022/06/11 15:39:47;;;;;;;0.57;0.20;;;25.70;36.90;;;;;;4880520;28;87415;-69
2022/06/11 15:42:17;;;;;;;1.63;0.38;;;25.70;36.60;;;;;;4879990;28;86162;-69
2022/06/11 15:44:44;;;;;;;1.27;0.10;;;25.80;37.90;;;;;;4879014;28;86944;-70
2022/06/11 15:47:17;;;;;;;0.98;0.50;;;25.90;35.80;;;;;;4878796;28;87149;-68
2022/06/11 15:49:49;;;;;;;0.80;0.20;;;25.90;36.40;;;;;;4879598;28;87836;-71
2022/06/11 15:52:23;;;;;;;0.65;0.20;;;25.90;36.60;;;;;;4880287;28;86938;-70
2022/06/11 15:55:14;;;;;;;1.15;0.22;;;25.90;38.00;;;;;;4879040;28;87065;-70
2022/06/11 15:57:47;;;;;;;0.80;0.13;;;26.00;35.80;;;;;;4873789;28;86884;-72
2022/06/11 16:00:40;;;;;;;1.80;0.30;;;26.00;36.60;;;;;;4879007;28;87691;-72
2022/06/11 16:03:36;;;;;;;0.63;0.10;;;25.90;36.10;;;;;;4896144;28;87215;-70
2022/06/11 16:06:09;;;;;;;0.68;0.20;;;25.90;37.30;;;;;;4899418;28;87297;-70
2022/06/11 16:08:58;;;;;;;2.00;0.45;;;25.90;38.60;;;;;;4899557;28;86462;-71
2022/06/11 16:11:29;;;;;;;2.47;0.28;;;25.80;38.40;;;;;;4898326;28;87106;-71
2022/06/11 16:14:13;;;;;;;1.80;0.20;;;25.80;37.30;;;;;;4897251;28;87066;-70
2022/06/11 16:16:55;;;;;;;1.15;0.50;;;25.80;38.20;;;;;;4898705;28;88023;-73
2022/06/11 16:19:29;;;;;;;0.40;0.10;;;25.80;36.50;;;;;;4899036;28;88874;-70
2022/06/11 16:21:57;;;;;;;0.65;0.45;;;25.80;37.40;;;;;;4899525;28;87020;-71
2022/06/11 16:24:25;;;;;;;2.78;0.45;;;25.80;37.30;;;;;;4897483;28;87714;-70
2022/06/11 16:26:54;;;;;;;4.10;0.13;;;25.80;38.10;;;;;;4898529;28;87168;-70
2022/06/11 16:29:21;;;;;;;;;;;25.70;39.00;;;;;;4894943;28;87178;-72
2022/06/11 16:31:48;;;;;;;1.98;0.22;;;25.60;40.60;;;;;;4900673;28;86270;-70
2022/06/11 16:34:18;;;;;;;2.88;0.40;;;25.50;38.70;;;;;;4899472;28;86739;-71
2022/06/11 16:36:46;;;;;;;0.95;0.20;;;25.40;38.20;;;;;;4899018;28;86841;-70